sensor_id;sensor_type;location;lat;lon;timestamp;pressure;altitude;pressure_sealevel;temperature;humidity
10606;BME280;5350;42.698;23.148;2023-03-23T00:02:02;93611.31;;;5.86;100.00
10606;BME280;5350;42.698;23.148;2023-03-23T00:04:30;93611.81;;;5.88;100.00
10606;BME280;5350;42.698;23.148;2023-03-23T00:06:58;93608.69;;;5.91;100.00
10606;BME280;5350;42.698;23.148;2023-03-23T00:09:26;93600.09;;;5.90;100.00
10606;BME280;5350;42.698;23.148;2023-03-23T00:11:53;93605.84;;;5.92;100.00
10606;BME280;5350;42.698;23.148;2023-03-23T00:14:22;93601.13;;;5.89;100.00
10606;BME280;5350;42.698;23.148;2023-03-23T00:16:50;93592.75;;;5.87;100.00
10606;BME280;5350;42.698;23.148;2023-03-23T00:19:17;93595.38;;;5.87;100.00
10606;BME280;5350;42.698;23.148;2023-03-23T00:21:46;93598.19;;;5.81;100.00
10606;BME280;5350;42.698;23.148;2023-03-23T00:24:15;93593.50;;;5.73;100.00
10606;BME280;5350;42.698;23.148;2023-03-23T00:26:44;93598.44;;;5.74;100.00
10606;BME280;5350;42.698;23.148;2023-03-23T00:29:13;93593.22;;;5.74;100.00
10606;BME280;5350;42.698;23.148;2023-03-23T00:31:40;93596.66;;;5.80;100.00
10606;BME280;5350;42.698;23.148;2023-03-23T00:34:12;93599.81;;;5.87;100.00
10606;BME280;5350;42.698;23.148;2023-03-23T00:36:45;93597.94;;;5.82;100.00
10606;BME280;5350;42.698;23.148;2023-03-23T00:39:11;93608.44;;;5.87;100.00
10606;BME280;5350;42.698;23.148;2023-03-23T00:41:39;93609.22;;;5.98;100.00
10606;BME280;5350;42.698;23.148;2023-03-23T00:44:06;93605.56;;;6.09;100.00
10606;BME280;5350;42.698;23.148;2023-03-23T00:46:34;93601.91;;;5.95;100.00
10606;BME280;5350;42.698;23.148;2023-03-23T00:49:11;93618.09;;;6.07;100.00
10606;BME280;5350;42.698;23.148;2023-03-23T00:51:38;93612.34;;;5.95;100.00
10606;BME280;5350;42.698;23.148;2023-03-23T00:54:05;93610.78;;;5.94;100.00
10606;BME280;5350;42.698;23.148;2023-03-23T00:56:32;93605.56;;;5.94;100.00
10606;BME280;5350;42.698;23.148;2023-03-23T00:59:00;93600.09;;;5.90;100.00
10606;BME280;5350;42.698;23.148;2023-03-23T01:01:27;93607.63;;;5.97;100.00
10606;BME280;5350;42.698;23.148;2023-03-23T01:03:54;93608.16;;;5.99;100.00
10606;BME280;5350;42.698;23.148;2023-03-23T01:06:26;93617.56;;;6.00;100.00
10606;BME280;5350;42.698;23.148;2023-03-23T01:08:54;93608.69;;;6.06;100.00
10606;BME280;5350;42.698;23.148;2023-03-23T01:11:22;93614.44;;;6.08;100.00
10606;BME280;5350;42.698;23.148;2023-03-23T01:13:50;93614.44;;;6.13;100.00
10606;BME280;5350;42.698;23.148;2023-03-23T01:16:18;93602.69;;;6.05;100.00
10606;BME280;5350;42.698;23.148;2023-03-23T01:18:45;93602.44;;;6.07;100.00
10606;BME280;5350;42.698;23.148;2023-03-23T01:21:13;93616.78;;;6.09;100.00
10606;BME280;5350;42.698;23.148;2023-03-23T01:23:41;93613.38;;;6.14;100.00
10606;BME280;5350;42.698;23.148;2023-03-23T01:26:10;93620.19;;;6.15;100.00
10606;BME280;5350;42.698;23.148;2023-03-23T01:28:37;93618.09;;;6.07;100.00
10606;BME280;5350;42.698;23.148;2023-03-23T01:31:07;93613.66;;;6.07;100.00
10606;BME280;5350;42.698;23.148;2023-03-23T01:33:35;93612.34;;;6.10;100.00
10606;BME280;5350;42.698;23.148;2023-03-23T01:36:03;93617.06;;;6.03;100.00
10606;BME280;5350;42.698;23.148;2023-03-23T01:38:31;93619.13;;;6.01;100.00
10606;BME280;5350;42.698;23.148;2023-03-23T01:40:57;93619.41;;;6.04;100.00
10606;BME280;5350;42.698;23.148;2023-03-23T01:43:24;93620.19;;;6.05;100.00
10606;BME280;5350;42.698;23.148;2023-03-23T01:45:51;93614.47;;;6.03;100.00
10606;BME280;5350;42.698;23.148;2023-03-23T01:48:21;93617.31;;;6.01;100.00
10606;BME280;5350;42.698;23.148;2023-03-23T01:50:55;93624.34;;;6.01;100.00
10606;BME280;5350;42.698;23.148;2023-03-23T01:53:28;93625.41;;;6.05;100.00
10606;BME280;5350;42.698;23.148;2023-03-23T01:55:56;93615.22;;;6.03;100.00
10606;BME280;5350;42.698;23.148;2023-03-23T01:58:25;93618.88;;;6.07;100.00
10606;BME280;5350;42.698;23.148;2023-03-23T02:00:54;93617.31;;;5.96;100.00
10606;BME280;5350;42.698;23.148;2023-03-23T02:03:24;93613.13;;;6.00;100.00
10606;BME280;5350;42.698;23.148;2023-03-23T02:05:53;93612.31;;;5.80;100.00
10606;BME280;5350;42.698;23.148;2023-03-23T02:08:24;93608.09;;;5.58;100.00
10606;BME280;5350;42.698;23.148;2023-03-23T02:10:53;93606.69;;;5.26;100.00
10606;BME280;5350;42.698;23.148;2023-03-23T02:13:20;93604.47;;;4.88;100.00
10606;BME280;5350;42.698;23.148;2023-03-23T02:15:54;93600.84;;;4.94;100.00
10606;BME280;5350;42.698;23.148;2023-03-23T02:18:34;93606.94;;;5.24;100.00
10606;BME280;5350;42.698;23.148;2023-03-23T02:21:26;93605.94;;;5.25;100.00
10606;BME280;5350;42.698;23.148;2023-03-23T02:24:13;93605.91;;;5.20;100.00
10606;BME280;5350;42.698;23.148;2023-03-23T02:26:51;93609.06;;;5.27;100.00
10606;BME280;5350;42.698;23.148;2023-03-23T02:29:49;93617.09;;;5.16;100.00
10606;BME280;5350;42.698;23.148;2023-03-23T02:32:38;93613.34;;;4.97;100.00
10606;BME280;5350;42.698;23.148;2023-03-23T02:35:11;93613.63;;;4.90;100.00
10606;BME280;5350;42.698;23.148;2023-03-23T02:37:43;93600.47;;;4.70;100.00
10606;BME280;5350;42.698;23.148;2023-03-23T02:40:15;93616.75;;;4.92;100.00
10606;BME280;5350;42.698;23.148;2023-03-23T02:42:47;93609.44;;;4.89;100.00
10606;BME280;5350;42.698;23.148;2023-03-23T02:45:16;93612.78;;;4.79;100.00
10606;BME280;5350;42.698;23.148;2023-03-23T02:47:46;93605.66;;;4.65;100.00
10606;BME280;5350;42.698;23.148;2023-03-23T02:50:16;93613.50;;;4.65;100.00
10606;BME280;5350;42.698;23.148;2023-03-23T02:52:46;93621.41;;;4.85;100.00
10606;BME280;5350;42.698;23.148;2023-03-23T02:55:15;93620.91;;;4.93;100.00
10606;BME280;5350;42.698;23.148;2023-03-23T02:57:43;93625.63;;;4.96;100.00
10606;BME280;5350;42.698;23.148;2023-03-23T03:00:13;93623.03;;;5.01;100.00
10606;BME280;5350;42.698;23.148;2023-03-23T03:02:43;93618.88;;;5.05;100.00
10606;BME280;5350;42.698;23.148;2023-03-23T03:05:21;93622.53;;;5.09;100.00
10606;BME280;5350;42.698;23.148;2023-03-23T03:08:02;93601.13;;;4.92;100.00
10606;BME280;5350;42.698;23.148;2023-03-23T03:10:38;93623.06;;;5.11;100.00
10606;BME280;5350;42.698;23.148;2023-03-23T03:13:13;93623.63;;;5.18;100.00
10606;BME280;5350;42.698;23.148;2023-03-23T03:15:44;93625.44;;;5.18;100.00
10606;BME280;5350;42.698;23.148;2023-03-23T03:18:18;93629.34;;;5.10;100.00
10606;BME280;5350;42.698;23.148;2023-03-23T03:20:52;93631.13;;;5.00;100.00
10606;BME280;5350;42.698;23.148;2023-03-23T03:23:20;93630.63;;;5.08;100.00
10606;BME280;5350;42.698;23.148;2023-03-23T03:25:50;93634.28;;;5.12;100.00
10606;BME280;5350;42.698;23.148;2023-03-23T03:28:19;93634.03;;;5.13;100.00
10606;BME280;5350;42.698;23.148;2023-03-23T03:30:49;93637.69;;;5.12;100.00
10606;BME280;5350;42.698;23.148;2023-03-23T03:33:16;93637.72;;;5.17;100.00
10606;BME280;5350;42.698;23.148;2023-03-23T03:35:46;93634.31;;;5.17;100.00
10606;BME280;5350;42.698;23.148;2023-03-23T03:38:15;93637.22;;;5.25;100.00
10606;BME280;5350;42.698;23.148;2023-03-23T03:40:42;93648.94;;;5.28;100.00
10606;BME280;5350;42.698;23.148;2023-03-23T03:43:09;93648.72;;;5.29;100.00
10606;BME280;5350;42.698;23.148;2023-03-23T03:45:35;93656.78;;;5.28;100.00
10606;BME280;5350;42.698;23.148;2023-03-23T03:48:03;93662.03;;;5.43;100.00
10606;BME280;5350;42.698;23.148;2023-03-23T03:50:29;93646.69;;;5.51;100.00
10606;BME280;5350;42.698;23.148;2023-03-23T03:52:57;93648.53;;;5.56;100.00
10606;BME280;5350;42.698;23.148;2023-03-23T03:55:25;93644.84;;;5.47;100.00
10606;BME280;5350;42.698;23.148;2023-03-23T03:57:53;93640.94;;;5.44;100.00
10606;BME280;5350;42.698;23.148;2023-03-23T04:00:21;93632.03;;;5.35;100.00
10606;BME280;5350;42.698;23.148;2023-03-23T04:02:49;93655.81;;;5.44;100.00
10606;BME280;5350;42.698;23.148;2023-03-23T04:05:20;93646.94;;;5.45;100.00
10606;BME280;5350;42.698;23.148;2023-03-23T04:07:47;93648.75;;;5.49;100.00
10606;BME280;5350;42.698;23.148;2023-03-23T04:10:17;93644.84;;;5.42;100.00
10606;BME280;5350;42.698;23.148;2023-03-23T04:12:48;93645.63;;;5.47;100.00
10606;BME280;5350;42.698;23.148;2023-03-23T04:15:15;93650.59;;;5.49;100.00
10606;BME280;5350;42.698;23.148;2023-03-23T04:17:42;93644.88;;;5.57;100.00
10606;BME280;5350;42.698;23.148;2023-03-23T04:20:10;93645.16;;;5.60;100.00
10606;BME280;5350;42.698;23.148;2023-03-23T04:22:43;93650.09;;;5.52;100.00
10606;BME280;5350;42.698;23.148;2023-03-23T04:25:11;93646.09;;;5.34;100.00
10606;BME280;5350;42.698;23.148;2023-03-23T04:27:38;93653.66;;;5.31;100.00
10606;BME280;5350;42.698;23.148;2023-03-23T04:30:12;93643.72;;;5.28;100.00
10606;BME280;5350;42.698;23.148;2023-03-23T04:32:39;93654.69;;;5.25;100.00
10606;BME280;5350;42.698;23.148;2023-03-23T04:35:08;93650.25;;;5.30;100.00
10606;BME280;5350;42.698;23.148;2023-03-23T04:37:36;93664.88;;;5.36;100.00
10606;BME280;5350;42.698;23.148;2023-03-23T04:40:05;93652.38;;;5.33;100.00
10606;BME280;5350;42.698;23.148;2023-03-23T04:42:37;93640.28;;;5.12;100.00
10606;BME280;5350;42.698;23.148;2023-03-23T04:45:06;93651.81;;;5.21;100.00
10606;BME280;5350;42.698;23.148;2023-03-23T04:47:36;93651.25;;;5.14;100.00
10606;BME280;5350;42.698;23.148;2023-03-23T04:50:07;93652.28;;;5.13;100.00
10606;BME280;5350;42.698;23.148;2023-03-23T04:52:34;93665.38;;;5.23;100.00
10606;BME280;5350;42.698;23.148;2023-03-23T04:55:03;93658.69;;;4.85;100.00
10606;BME280;5350;42.698;23.148;2023-03-23T04:57:31;93664.91;;;4.84;100.00
10606;BME280;5350;42.698;23.148;2023-03-23T04:59:58;93670.34;;;4.73;100.00
10606;BME280;5350;42.698;23.148;2023-03-23T05:02:25;93670.66;;;4.81;100.00
10606;BME280;5350;42.698;23.148;2023-03-23T05:04:57;93673.56;;;4.90;100.00
10606;BME280;5350;42.698;23.148;2023-03-23T05:07:24;93678.28;;;4.98;100.00
10606;BME280;5350;42.698;23.148;2023-03-23T05:09:51;93679.63;;;5.06;100.00
10606;BME280;5350;42.698;23.148;2023-03-23T05:12:17;93671.59;;;5.12;100.00
10606;BME280;5350;42.698;23.148;2023-03-23T05:14:44;93675.50;;;5.20;100.00
10606;BME280;5350;42.698;23.148;2023-03-23T05:17:11;93685.50;;;5.33;100.00
10606;BME280;5350;42.698;23.148;2023-03-23T05:19:42;93680.59;;;5.46;100.00
10606;BME280;5350;42.698;23.148;2023-03-23T05:22:10;93692.09;;;5.50;100.00
10606;BME280;5350;42.698;23.148;2023-03-23T05:24:38;93680.59;;;5.51;100.00
10606;BME280;5350;42.698;23.148;2023-03-23T05:27:05;93680.41;;;5.63;100.00
10606;BME280;5350;42.698;23.148;2023-03-23T05:29:33;93686.66;;;5.72;100.00
10606;BME280;5350;42.698;23.148;2023-03-23T05:32:01;93688.47;;;5.72;100.00
10606;BME280;5350;42.698;23.148;2023-03-23T05:34:29;93694.25;;;5.74;100.00
10606;BME280;5350;42.698;23.148;2023-03-23T05:36:57;93690.13;;;5.88;100.00
10606;BME280;5350;42.698;23.148;2023-03-23T05:39:25;93692.53;;;6.04;100.00
10606;BME280;5350;42.698;23.148;2023-03-23T05:41:52;93691.22;;;6.12;100.00
10606;BME280;5350;42.698;23.148;2023-03-23T05:44:19;93695.41;;;6.18;100.00
10606;BME280;5350;42.698;23.148;2023-03-23T05:46:46;93697.50;;;6.26;100.00
10606;BME280;5350;42.698;23.148;2023-03-23T05:49:13;93694.13;;;6.35;100.00
10606;BME280;5350;42.698;23.148;2023-03-23T05:51:41;93706.13;;;6.41;100.00
10606;BME280;5350;42.698;23.148;2023-03-23T05:54:08;93703.78;;;6.50;100.00
10606;BME280;5350;42.698;23.148;2023-03-23T05:56:37;93703.28;;;6.63;100.00
10606;BME280;5350;42.698;23.148;2023-03-23T05:59:04;93716.59;;;6.77;100.00
10606;BME280;5350;42.698;23.148;2023-03-23T06:01:32;93712.41;;;6.86;100.00
10606;BME280;5350;42.698;23.148;2023-03-23T06:03:59;93722.31;;;6.94;100.00
10606;BME280;5350;42.698;23.148;2023-03-23T06:06:26;93716.81;;;6.95;100.00
10606;BME280;5350;42.698;23.148;2023-03-23T06:08:53;93715.25;;;6.99;100.00
10606;BME280;5350;42.698;23.148;2023-03-23T06:11:20;93714.69;;;7.07;100.00
10606;BME280;5350;42.698;23.148;2023-03-23T06:13:48;93718.88;;;7.18;100.00
10606;BME280;5350;42.698;23.148;2023-03-23T06:16:15;93717.81;;;7.24;100.00
10606;BME280;5350;42.698;23.148;2023-03-23T06:18:42;93720.91;;;7.37;100.00
10606;BME280;5350;42.698;23.148;2023-03-23T06:21:09;93720.91;;;7.47;100.00
10606;BME280;5350;42.698;23.148;2023-03-23T06:23:36;93715.88;;;7.65;100.00
10606;BME280;5350;42.698;23.148;2023-03-23T06:26:05;93711.91;;;7.73;100.00
10606;BME280;5350;42.698;23.148;2023-03-23T06:28:33;93715.53;;;7.82;100.00
10606;BME280;5350;42.698;23.148;2023-03-23T06:31:03;93714.97;;;7.90;100.00
10606;BME280;5350;42.698;23.148;2023-03-23T06:33:31;93708.34;;;8.02;100.00
10606;BME280;5350;42.698;23.148;2023-03-23T06:35:59;93709.66;;;8.05;100.00
10606;BME280;5350;42.698;23.148;2023-03-23T06:38:26;93718.47;;;8.19;100.00
10606;BME280;5350;42.698;23.148;2023-03-23T06:40:53;93716.84;;;8.28;100.00
10606;BME280;5350;42.698;23.148;2023-03-23T06:43:21;93719.16;;;8.40;100.00
10606;BME280;5350;42.698;23.148;2023-03-23T06:45:47;93731.44;;;8.44;100.00
10606;BME280;5350;42.698;23.148;2023-03-23T06:48:15;93724.53;;;8.53;100.00
10606;BME280;5350;42.698;23.148;2023-03-23T06:50:42;93722.41;;;8.60;100.00
10606;BME280;5350;42.698;23.148;2023-03-23T06:53:10;93728.38;;;8.66;100.00
10606;BME280;5350;42.698;23.148;2023-03-23T06:55:37;93733.28;;;8.77;100.00
10606;BME280;5350;42.698;23.148;2023-03-23T06:58:04;93733.22;;;8.88;100.00
10606;BME280;5350;42.698;23.148;2023-03-23T07:00:31;93735.72;;;9.03;100.00
10606;BME280;5350;42.698;23.148;2023-03-23T07:02:57;93732.06;;;8.99;100.00
10606;BME280;5350;42.698;23.148;2023-03-23T07:05:26;93735.41;;;9.04;100.00
10606;BME280;5350;42.698;23.148;2023-03-23T07:07:53;93734.09;;;9.07;100.00
10606;BME280;5350;42.698;23.148;2023-03-23T07:10:19;93736.13;;;9.15;100.00
10606;BME280;5350;42.698;23.148;2023-03-23T07:12:46;93738.22;;;9.13;100.00
10606;BME280;5350;42.698;23.148;2023-03-23T07:15:13;93741.75;;;9.27;100.00
10606;BME280;5350;42.698;23.148;2023-03-23T07:17:40;93735.88;;;9.40;100.00
10606;BME280;5350;42.698;23.148;2023-03-23T07:20:08;93745.75;;;9.48;100.00
10606;BME280;5350;42.698;23.148;2023-03-23T07:22:37;93747.25;;;9.54;100.00
10606;BME280;5350;42.698;23.148;2023-03-23T07:25:04;93741.91;;;9.64;100.00
10606;BME280;5350;42.698;23.148;2023-03-23T07:27:31;93747.56;;;9.76;100.00
10606;BME280;5350;42.698;23.148;2023-03-23T07:29:58;93752.06;;;9.71;100.00
10606;BME280;5350;42.698;23.148;2023-03-23T07:32:24;93753.31;;;9.78;100.00
10606;BME280;5350;42.698;23.148;2023-03-23T07:34:51;93751.56;;;9.92;100.00
10606;BME280;5350;42.698;23.148;2023-03-23T07:37:18;93747.53;;;10.00;100.00
10606;BME280;5350;42.698;23.148;2023-03-23T07:39:46;93760.81;;;10.08;100.00
10606;BME280;5350;42.698;23.148;2023-03-23T07:42:13;93753.78;;;10.27;100.00
10606;BME280;5350;42.698;23.148;2023-03-23T07:44:40;93751.16;;;10.46;100.00
10606;BME280;5350;42.698;23.148;2023-03-23T07:47:07;93763.47;;;10.51;100.00
10606;BME280;5350;42.698;23.148;2023-03-23T07:49:34;93754.06;;;10.44;100.00
10606;BME280;5350;42.698;23.148;2023-03-23T07:52:01;93764.66;;;10.58;100.00
10606;BME280;5350;42.698;23.148;2023-03-23T07:54:28;93773.28;;;10.64;100.00
10606;BME280;5350;42.698;23.148;2023-03-23T07:56:56;93765.72;;;10.76;100.00
10606;BME280;5350;42.698;23.148;2023-03-23T07:59:23;93760.78;;;10.88;100.00
10606;BME280;5350;42.698;23.148;2023-03-23T08:01:50;93763.69;;;11.05;100.00
10606;BME280;5350;42.698;23.148;2023-03-23T08:04:17;93760.81;;;11.20;100.00
10606;BME280;5350;42.698;23.148;2023-03-23T08:06:43;93766.09;;;11.20;100.00
10606;BME280;5350;42.698;23.148;2023-03-23T08:09:10;93772.22;;;11.29;100.00
10606;BME280;5350;42.698;23.148;2023-03-23T08:11:38;93769.75;;;11.51;100.00
10606;BME280;5350;42.698;23.148;2023-03-23T08:14:06;93778.75;;;11.64;100.00
10606;BME280;5350;42.698;23.148;2023-03-23T08:16:33;93775.81;;;11.65;96.57
10606;BME280;5350;42.698;23.148;2023-03-23T08:19:01;93777.72;;;11.78;99.10
10606;BME280;5350;42.698;23.148;2023-03-23T08:21:27;93782.13;;;11.96;96.98
10606;BME280;5350;42.698;23.148;2023-03-23T08:23:54;93790.13;;;12.05;93.59
10606;BME280;5350;42.698;23.148;2023-03-23T08:26:21;93775.47;;;11.99;92.78
10606;BME280;5350;42.698;23.148;2023-03-23T08:28:48;93782.50;;;12.17;95.02
10606;BME280;5350;42.698;23.148;2023-03-23T08:31:16;93781.31;;;12.37;94.01
10606;BME280;5350;42.698;23.148;2023-03-23T08:33:43;93783.59;;;12.52;94.10
10606;BME280;5350;42.698;23.148;2023-03-23T08:36:10;93787.03;;;12.52;84.22
10606;BME280;5350;42.698;23.148;2023-03-23T08:38:37;93787.84;;;12.75;87.47
10606;BME280;5350;42.698;23.148;2023-03-23T08:41:05;93787.63;;;12.85;88.55
10606;BME280;5350;42.698;23.148;2023-03-23T08:43:33;93783.28;;;13.03;86.14
10606;BME280;5350;42.698;23.148;2023-03-23T08:46:00;93780.00;;;13.19;84.93
10606;BME280;5350;42.698;23.148;2023-03-23T08:48:33;93787.91;;;13.41;79.81
10606;BME280;5350;42.698;23.148;2023-03-23T08:51:00;93785.09;;;13.60;81.66
10606;BME280;5350;42.698;23.148;2023-03-23T08:53:27;93781.50;;;13.64;75.06
10606;BME280;5350;42.698;23.148;2023-03-23T08:55:56;93788.16;;;13.53;67.99
10606;BME280;5350;42.698;23.148;2023-03-23T08:58:28;93780.91;;;13.68;71.42
10606;BME280;5350;42.698;23.148;2023-03-23T09:00:55;93781.03;;;13.62;70.35
10606;BME280;5350;42.698;23.148;2023-03-23T09:03:21;93775.41;;;13.55;71.25
10606;BME280;5350;42.698;23.148;2023-03-23T09:05:50;93789.22;;;13.75;73.09
10606;BME280;5350;42.698;23.148;2023-03-23T09:08:16;93784.44;;;13.94;69.86
10606;BME280;5350;42.698;23.148;2023-03-23T09:10:43;93783.03;;;13.88;68.88
10606;BME280;5350;42.698;23.148;2023-03-23T09:13:10;93773.94;;;14.11;71.13
10606;BME280;5350;42.698;23.148;2023-03-23T09:15:37;93768.66;;;14.11;66.61
10606;BME280;5350;42.698;23.148;2023-03-23T09:18:04;93770.00;;;13.91;67.36
10606;BME280;5350;42.698;23.148;2023-03-23T09:20:31;93777.88;;;13.83;63.97
10606;BME280;5350;42.698;23.148;2023-03-23T09:22:59;93773.28;;;13.97;65.65
10606;BME280;5350;42.698;23.148;2023-03-23T09:25:26;93754.22;;;13.78;66.44
10606;BME280;5350;42.698;23.148;2023-03-23T09:27:55;93764.63;;;14.13;67.87
10606;BME280;5350;42.698;23.148;2023-03-23T09:30:24;93765.16;;;14.32;66.66
10606;BME280;5350;42.698;23.148;2023-03-23T09:32:52;93763.50;;;14.62;65.89
10606;BME280;5350;42.698;23.148;2023-03-23T09:35:19;93749.50;;;14.70;67.72
10606;BME280;5350;42.698;23.148;2023-03-23T09:37:48;93761.03;;;14.83;62.98
10606;BME280;5350;42.698;23.148;2023-03-23T09:40:19;93759.00;;;14.97;64.20
10606;BME280;5350;42.698;23.148;2023-03-23T09:42:58;93759.28;;;15.12;60.70
10606;BME280;5350;42.698;23.148;2023-03-23T09:45:43;93751.03;;;15.23;59.51
10606;BME280;5350;42.698;23.148;2023-03-23T09:48:40;93755.88;;;15.12;58.94
10606;BME280;5350;42.698;23.148;2023-03-23T09:51:17;93755.09;;;15.29;63.76
10606;BME280;5350;42.698;23.148;2023-03-23T09:53:50;93764.72;;;15.42;60.54
10606;BME280;5350;42.698;23.148;2023-03-23T09:56:20;93757.84;;;15.58;55.76
10606;BME280;5350;42.698;23.148;2023-03-23T09:58:57;93756.41;;;15.69;59.42
10606;BME280;5350;42.698;23.148;2023-03-23T10:01:27;93754.06;;;15.76;53.85
10606;BME280;5350;42.698;23.148;2023-03-23T10:04:01;93740.72;;;15.93;57.93
10606;BME280;5350;42.698;23.148;2023-03-23T10:06:28;93738.50;;;16.04;54.72
10606;BME280;5350;42.698;23.148;2023-03-23T10:08:57;93735.59;;;15.88;56.18
10606;BME280;5350;42.698;23.148;2023-03-23T10:11:47;93743.78;;;15.66;55.72
10606;BME280;5350;42.698;23.148;2023-03-23T10:14:25;93752.25;;;15.51;53.91
10606;BME280;5350;42.698;23.148;2023-03-23T10:17:00;93748.78;;;15.59;56.23
10606;BME280;5350;42.698;23.148;2023-03-23T10:19:34;93740.50;;;15.69;54.33
10606;BME280;5350;42.698;23.148;2023-03-23T10:22:05;93737.94;;;15.89;53.43
10606;BME280;5350;42.698;23.148;2023-03-23T10:24:35;93731.97;;;16.01;55.66
10606;BME280;5350;42.698;23.148;2023-03-23T10:27:13;93739.59;;;16.32;57.01
10606;BME280;5350;42.698;23.148;2023-03-23T10:29:50;93733.16;;;16.41;55.00
10606;BME280;5350;42.698;23.148;2023-03-23T10:32:23;93736.53;;;16.50;52.74
10606;BME280;5350;42.698;23.148;2023-03-23T10:34:54;93724.28;;;16.37;54.87
10606;BME280;5350;42.698;23.148;2023-03-23T10:37:25;93739.66;;;16.73;53.44
10606;BME280;5350;42.698;23.148;2023-03-23T10:39:54;93744.28;;;16.85;52.04
10606;BME280;5350;42.698;23.148;2023-03-23T10:42:24;93722.56;;;16.83;49.74
10606;BME280;5350;42.698;23.148;2023-03-23T10:44:51;93722.69;;;16.86;51.90
10606;BME280;5350;42.698;23.148;2023-03-23T10:47:19;93714.13;;;17.01;49.92
10606;BME280;5350;42.698;23.148;2023-03-23T10:49:49;93709.84;;;17.09;52.45
10606;BME280;5350;42.698;23.148;2023-03-23T10:52:29;93704.19;;;17.43;50.70
10606;BME280;5350;42.698;23.148;2023-03-23T10:55:02;93704.84;;;17.40;49.05
10606;BME280;5350;42.698;23.148;2023-03-23T10:57:33;93697.06;;;17.68;50.92
10606;BME280;5350;42.698;23.148;2023-03-23T11:00:03;93697.41;;;17.90;49.49
10606;BME280;5350;42.698;23.148;2023-03-23T11:02:37;93701.41;;;17.72;47.95
10606;BME280;5350;42.698;23.148;2023-03-23T11:05:12;93701.41;;;17.84;46.38
10606;BME280;5350;42.698;23.148;2023-03-23T11:07:40;93691.00;;;17.91;50.17
10606;BME280;5350;42.698;23.148;2023-03-23T11:10:17;93698.53;;;18.01;46.82
10606;BME280;5350;42.698;23.148;2023-03-23T11:12:48;93690.53;;;18.13;47.76
10606;BME280;5350;42.698;23.148;2023-03-23T11:15:22;93678.91;;;18.18;46.97
10606;BME280;5350;42.698;23.148;2023-03-23T11:17:58;93695.66;;;18.06;47.12
10606;BME280;5350;42.698;23.148;2023-03-23T11:20:26;93684.13;;;18.26;46.13
10606;BME280;5350;42.698;23.148;2023-03-23T11:22:54;93683.09;;;18.43;47.51
10606;BME280;5350;42.698;23.148;2023-03-23T11:25:21;93676.38;;;17.97;44.69
10606;BME280;5350;42.698;23.148;2023-03-23T11:27:50;93676.13;;;17.90;46.64
10606;BME280;5350;42.698;23.148;2023-03-23T11:30:23;93668.28;;;17.94;45.18
10606;BME280;5350;42.698;23.148;2023-03-23T11:32:54;93670.50;;;17.92;46.35
10606;BME280;5350;42.698;23.148;2023-03-23T11:35:25;93667.38;;;18.02;44.39
10606;BME280;5350;42.698;23.148;2023-03-23T11:37:54;93666.25;;;18.15;44.98
10606;BME280;5350;42.698;23.148;2023-03-23T11:40:23;93661.78;;;18.43;44.95
10606;BME280;5350;42.698;23.148;2023-03-23T11:42:57;93649.84;;;18.77;44.71
10606;BME280;5350;42.698;23.148;2023-03-23T11:45:32;93658.47;;;19.13;42.16
10606;BME280;5350;42.698;23.148;2023-03-23T11:48:06;93656.00;;;19.48;44.73
10606;BME280;5350;42.698;23.148;2023-03-23T11:50:45;93650.81;;;18.84;43.16
10606;BME280;5350;42.698;23.148;2023-03-23T11:53:24;93646.47;;;18.92;44.08
10606;BME280;5350;42.698;23.148;2023-03-23T11:55:55;93653.13;;;19.13;43.96
10606;BME280;5350;42.698;23.148;2023-03-23T11:58:26;93648.50;;;19.26;40.90
10606;BME280;5350;42.698;23.148;2023-03-23T12:01:00;93642.06;;;19.27;40.97
10606;BME280;5350;42.698;23.148;2023-03-23T12:03:51;93636.53;;;19.20;43.25
10606;BME280;5350;42.698;23.148;2023-03-23T12:06:27;93638.59;;;19.11;42.27
10606;BME280;5350;42.698;23.148;2023-03-23T12:09:06;93634.16;;;18.87;41.77
10606;BME280;5350;42.698;23.148;2023-03-23T12:11:40;93644.59;;;18.80;42.29
10606;BME280;5350;42.698;23.148;2023-03-23T12:14:20;93635.38;;;19.33;41.27
10606;BME280;5350;42.698;23.148;2023-03-23T12:16:59;93631.38;;;19.70;41.09
10606;BME280;5350;42.698;23.148;2023-03-23T12:19:36;93632.13;;;20.02;41.34
10606;BME280;5350;42.698;23.148;2023-03-23T12:22:12;93634.09;;;20.21;39.07
10606;BME280;5350;42.698;23.148;2023-03-23T12:24:49;93632.09;;;20.18;38.05
10606;BME280;5350;42.698;23.148;2023-03-23T12:27:25;93618.50;;;20.23;38.92
10606;BME280;5350;42.698;23.148;2023-03-23T12:30:18;93625.72;;;20.76;39.46
10606;BME280;5350;42.698;23.148;2023-03-23T12:33:02;93625.00;;;20.60;38.31
10606;BME280;5350;42.698;23.148;2023-03-23T12:35:40;93626.34;;;20.89;38.35
10606;BME280;5350;42.698;23.148;2023-03-23T12:38:27;93626.19;;;21.01;36.63
10606;BME280;5350;42.698;23.148;2023-03-23T12:41:10;93624.47;;;21.08;37.58
10606;BME280;5350;42.698;23.148;2023-03-23T12:43:42;93620.72;;;21.55;38.88
10606;BME280;5350;42.698;23.148;2023-03-23T12:46:21;93619.88;;;21.73;36.81
10606;BME280;5350;42.698;23.148;2023-03-23T12:48:53;93612.50;;;21.67;36.85
10606;BME280;5350;42.698;23.148;2023-03-23T12:51:27;93622.69;;;21.58;36.97
10606;BME280;5350;42.698;23.148;2023-03-23T12:54:03;93606.38;;;21.89;36.55
10606;BME280;5350;42.698;23.148;2023-03-23T12:56:37;93599.00;;;22.05;34.72
10606;BME280;5350;42.698;23.148;2023-03-23T12:59:11;93602.91;;;22.11;36.68
10606;BME280;5350;42.698;23.148;2023-03-23T13:01:43;93601.19;;;22.55;35.32
10606;BME280;5350;42.698;23.148;2023-03-23T13:04:14;93599.91;;;22.42;35.09
10606;BME280;5350;42.698;23.148;2023-03-23T13:06:44;93602.69;;;21.97;34.61
10606;BME280;5350;42.698;23.148;2023-03-23T13:09:15;93598.56;;;22.29;34.65
10606;BME280;5350;42.698;23.148;2023-03-23T13:11:43;93584.63;;;22.46;34.74
10606;BME280;5350;42.698;23.148;2023-03-23T13:14:31;93593.38;;;22.69;34.24
10606;BME280;5350;42.698;23.148;2023-03-23T13:17:10;93588.34;;;22.97;34.98